sensor_id;sensor_type;location;lat;lon;timestamp;pressure;altitude;pressure_sealevel;temperature;humidity
21640;BME280;10981;45.462;10.974;2023-09-18T00:02:27;100840.16;;;21.08;100.00
21640;BME280;10981;45.462;10.974;2023-09-18T00:04:57;100835.03;;;21.06;100.00
21640;BME280;10981;45.462;10.974;2023-09-18T00:07:26;100836.06;;;21.05;100.00
21640;BME280;10981;45.462;10.974;2023-09-18T00:09:55;100838.06;;;21.03;100.00
21640;BME280;10981;45.462;10.974;2023-09-18T00:12:23;100841.38;;;21.05;100.00
21640;BME280;10981;45.462;10.974;2023-09-18T00:14:51;100830.94;;;21.04;100.00
21640;BME280;10981;45.462;10.974;2023-09-18T00:17:20;100833.13;;;21.00;100.00
21640;BME280;10981;45.462;10.974;2023-09-18T00:19:49;100826.56;;;20.96;100.00
21640;BME280;10981;45.462;10.974;2023-09-18T00:22:19;100830.44;;;20.94;100.00
21640;BME280;10981;45.462;10.974;2023-09-18T00:24:49;100837.00;;;20.98;100.00
21640;BME280;10981;45.462;10.974;2023-09-18T00:27:17;100837.47;;;21.01;100.00
21640;BME280;10981;45.462;10.974;2023-09-18T00:29:46;100836.06;;;21.05;100.00
21640;BME280;10981;45.462;10.974;2023-09-18T00:32:14;100839.16;;;21.09;100.00
21640;BME280;10981;45.462;10.974;2023-09-18T00:34:42;100817.25;;;21.07;100.00
21640;BME280;10981;45.462;10.974;2023-09-18T00:37:11;100804.34;;;21.04;100.00
21640;BME280;10981;45.462;10.974;2023-09-18T00:39:42;100811.88;;;21.00;100.00
21640;BME280;10981;45.462;10.974;2023-09-18T00:42:10;100804.09;;;20.99;100.00
21640;BME280;10981;45.462;10.974;2023-09-18T00:44:42;100803.03;;;21.00;100.00
21640;BME280;10981;45.462;10.974;2023-09-18T00:47:11;100812.06;;;20.99;100.00
21640;BME280;10981;45.462;10.974;2023-09-18T00:49:46;100809.81;;;21.02;100.00
21640;BME280;10981;45.462;10.974;2023-09-18T00:52:18;100795.06;;;21.00;100.00
21640;BME280;10981;45.462;10.974;2023-09-18T00:54:48;100781.72;;;20.93;100.00
21640;BME280;10981;45.462;10.974;2023-09-18T00:57:18;100780.81;;;20.86;100.00
21640;BME280;10981;45.462;10.974;2023-09-18T00:59:47;100777.19;;;20.72;100.00
21640;BME280;10981;45.462;10.974;2023-09-18T01:02:15;100783.69;;;20.69;100.00
21640;BME280;10981;45.462;10.974;2023-09-18T01:04:44;100769.72;;;20.61;100.00
21640;BME280;10981;45.462;10.974;2023-09-18T01:07:12;100761.91;;;20.59;100.00
21640;BME280;10981;45.462;10.974;2023-09-18T01:09:42;100754.97;;;20.58;100.00
21640;BME280;10981;45.462;10.974;2023-09-18T01:12:36;100747.81;;;20.58;100.00
21640;BME280;10981;45.462;10.974;2023-09-18T01:15:42;100753.56;;;20.62;100.00
21640;BME280;10981;45.462;10.974;2023-09-18T01:18:13;100738.69;;;20.68;100.00
21640;BME280;10981;45.462;10.974;2023-09-18T01:20:43;100732.56;;;20.67;100.00
21640;BME280;10981;45.462;10.974;2023-09-18T01:23:11;100741.34;;;20.68;100.00
21640;BME280;10981;45.462;10.974;2023-09-18T01:25:40;100728.25;;;20.66;100.00
21640;BME280;10981;45.462;10.974;2023-09-18T01:28:08;100727.25;;;20.67;100.00
21640;BME280;10981;45.462;10.974;2023-09-18T01:30:36;100723.22;;;20.71;100.00
21640;BME280;10981;45.462;10.974;2023-09-18T01:33:09;100707.72;;;20.75;100.00
21640;BME280;10981;45.462;10.974;2023-09-18T01:35:39;100688.47;;;20.73;100.00
21640;BME280;10981;45.462;10.974;2023-09-18T01:38:07;100694.88;;;20.79;100.00
21640;BME280;10981;45.462;10.974;2023-09-18T01:40:39;100698.22;;;20.87;100.00
21640;BME280;10981;45.462;10.974;2023-09-18T01:43:07;100688.84;;;20.92;100.00
21640;BME280;10981;45.462;10.974;2023-09-18T01:45:37;100691.75;;;20.97;100.00
21640;BME280;10981;45.462;10.974;2023-09-18T01:48:06;100698.84;;;20.89;100.00
21640;BME280;10981;45.462;10.974;2023-09-18T01:50:36;100701.25;;;20.84;100.00
21640;BME280;10981;45.462;10.974;2023-09-18T01:53:04;100712.75;;;20.70;100.00
21640;BME280;10981;45.462;10.974;2023-09-18T01:55:33;100716.91;;;20.57;100.00
21640;BME280;10981;45.462;10.974;2023-09-18T01:58:01;100715.59;;;20.47;100.00
21640;BME280;10981;45.462;10.974;2023-09-18T02:00:31;100713.59;;;20.34;100.00
21640;BME280;10981;45.462;10.974;2023-09-18T02:03:00;100716.13;;;20.20;100.00
21640;BME280;10981;45.462;10.974;2023-09-18T02:05:51;100729.31;;;20.14;100.00
21640;BME280;10981;45.462;10.974;2023-09-18T02:08:20;100727.41;;;20.07;100.00
21640;BME280;10981;45.462;10.974;2023-09-18T02:10:48;100730.25;;;20.06;100.00
21640;BME280;10981;45.462;10.974;2023-09-18T02:13:17;100725.28;;;20.03;100.00
21640;BME280;10981;45.462;10.974;2023-09-18T02:15:46;100722.63;;;20.03;100.00
21640;BME280;10981;45.462;10.974;2023-09-18T02:18:14;100721.84;;;20.02;100.00
21640;BME280;10981;45.462;10.974;2023-09-18T02:20:47;100724.94;;;20.06;100.00
21640;BME280;10981;45.462;10.974;2023-09-18T02:23:16;100722.56;;;20.11;100.00
21640;BME280;10981;45.462;10.974;2023-09-18T02:25:45;100721.34;;;20.14;100.00
21640;BME280;10981;45.462;10.974;2023-09-18T02:28:15;100701.13;;;20.13;100.00
21640;BME280;10981;45.462;10.974;2023-09-18T02:30:44;100694.59;;;20.15;100.00
21640;BME280;10981;45.462;10.974;2023-09-18T02:33:14;100704.22;;;20.16;100.00
21640;BME280;10981;45.462;10.974;2023-09-18T02:35:43;100710.06;;;20.27;100.00
21640;BME280;10981;45.462;10.974;2023-09-18T02:38:11;100706.94;;;20.23;100.00
21640;BME280;10981;45.462;10.974;2023-09-18T02:40:40;100696.72;;;20.20;100.00
21640;BME280;10981;45.462;10.974;2023-09-18T02:43:08;100698.53;;;20.19;100.00
21640;BME280;10981;45.462;10.974;2023-09-18T02:45:36;100721.03;;;20.23;100.00
21640;BME280;10981;45.462;10.974;2023-09-18T02:48:05;100725.41;;;20.31;100.00
21640;BME280;10981;45.462;10.974;2023-09-18T02:50:34;100723.97;;;20.29;100.00
21640;BME280;10981;45.462;10.974;2023-09-18T02:53:02;100711.44;;;20.22;100.00
21640;BME280;10981;45.462;10.974;2023-09-18T02:55:31;100703.31;;;20.09;100.00
21640;BME280;10981;45.462;10.974;2023-09-18T02:57:59;100683.47;;;20.05;100.00
21640;BME280;10981;45.462;10.974;2023-09-18T03:00:31;100666.88;;;20.03;100.00
21640;BME280;10981;45.462;10.974;2023-09-18T03:03:11;100653.66;;;20.09;100.00
21640;BME280;10981;45.462;10.974;2023-09-18T03:05:41;100658.69;;;20.19;100.00
21640;BME280;10981;45.462;10.974;2023-09-18T03:08:11;100659.94;;;20.23;100.00
21640;BME280;10981;45.462;10.974;2023-09-18T03:10:41;100657.94;;;20.25;100.00
21640;BME280;10981;45.462;10.974;2023-09-18T03:13:12;100666.97;;;20.31;100.00
21640;BME280;10981;45.462;10.974;2023-09-18T03:15:45;100663.31;;;20.32;100.00
21640;BME280;10981;45.462;10.974;2023-09-18T03:18:16;100648.81;;;20.35;100.00
21640;BME280;10981;45.462;10.974;2023-09-18T03:20:46;100644.34;;;20.35;100.00
21640;BME280;10981;45.462;10.974;2023-09-18T03:23:14;100637.59;;;20.33;100.00
21640;BME280;10981;45.462;10.974;2023-09-18T03:25:43;100648.97;;;20.27;100.00
21640;BME280;10981;45.462;10.974;2023-09-18T03:28:20;100646.25;;;20.20;100.00
21640;BME280;10981;45.462;10.974;2023-09-18T03:30:50;100644.94;;;20.16;100.00
21640;BME280;10981;45.462;10.974;2023-09-18T03:33:21;100640.59;;;20.08;100.00
21640;BME280;10981;45.462;10.974;2023-09-18T03:35:51;100659.56;;;20.05;100.00
21640;BME280;10981;45.462;10.974;2023-09-18T03:38:25;100655.53;;;19.94;100.00
21640;BME280;10981;45.462;10.974;2023-09-18T03:40:55;100651.16;;;19.86;100.00
21640;BME280;10981;45.462;10.974;2023-09-18T03:43:23;100650.88;;;19.81;100.00
21640;BME280;10981;45.462;10.974;2023-09-18T03:45:52;100658.75;;;19.74;100.00
21640;BME280;10981;45.462;10.974;2023-09-18T03:48:22;100657.09;;;19.73;100.00
21640;BME280;10981;45.462;10.974;2023-09-18T03:50:51;100652.44;;;19.75;100.00
21640;BME280;10981;45.462;10.974;2023-09-18T03:53:19;100649.88;;;19.82;100.00
21640;BME280;10981;45.462;10.974;2023-09-18T03:55:49;100648.88;;;19.83;100.00
21640;BME280;10981;45.462;10.974;2023-09-18T03:58:17;100651.78;;;19.73;100.00
21640;BME280;10981;45.462;10.974;2023-09-18T04:00:45;100653.38;;;19.68;100.00
21640;BME280;10981;45.462;10.974;2023-09-18T04:03:13;100669.09;;;19.69;100.00
21640;BME280;10981;45.462;10.974;2023-09-18T04:05:42;100658.50;;;19.69;100.00
21640;BME280;10981;45.462;10.974;2023-09-18T04:08:11;100646.22;;;19.68;100.00
21640;BME280;10981;45.462;10.974;2023-09-18T04:10:39;100636.41;;;19.69;100.00
21640;BME280;10981;45.462;10.974;2023-09-18T04:13:07;100649.06;;;19.67;100.00
21640;BME280;10981;45.462;10.974;2023-09-18T04:15:37;100649.06;;;19.67;100.00
21640;BME280;10981;45.462;10.974;2023-09-18T04:18:06;100655.00;;;19.69;100.00
21640;BME280;10981;45.462;10.974;2023-09-18T04:20:34;100662.13;;;19.68;100.00
21640;BME280;10981;45.462;10.974;2023-09-18T04:23:24;100670.09;;;19.68;100.00
21640;BME280;10981;45.462;10.974;2023-09-18T04:25:54;100683.75;;;19.65;100.00
21640;BME280;10981;45.462;10.974;2023-09-18T04:28:23;100688.59;;;19.62;100.00
21640;BME280;10981;45.462;10.974;2023-09-18T04:30:52;100687.69;;;19.54;100.00
21640;BME280;10981;45.462;10.974;2023-09-18T04:33:21;100689.69;;;19.52;100.00
21640;BME280;10981;45.462;10.974;2023-09-18T04:35:50;100687.88;;;19.53;100.00
21640;BME280;10981;45.462;10.974;2023-09-18T04:38:19;100684.38;;;19.52;100.00
21640;BME280;10981;45.462;10.974;2023-09-18T04:40:48;100672.13;;;19.51;100.00
21640;BME280;10981;45.462;10.974;2023-09-18T04:43:16;100671.09;;;19.52;100.00
21640;BME280;10981;45.462;10.974;2023-09-18T04:45:45;100670.94;;;19.54;100.00
21640;BME280;10981;45.462;10.974;2023-09-18T04:48:15;100662.41;;;19.58;100.00
21640;BME280;10981;45.462;10.974;2023-09-18T04:50:44;100667.56;;;19.60;100.00
21640;BME280;10981;45.462;10.974;2023-09-18T04:53:13;100670.84;;;19.62;100.00
21640;BME280;10981;45.462;10.974;2023-09-18T04:55:45;100675.59;;;19.67;100.00
21640;BME280;10981;45.462;10.974;2023-09-18T04:58:17;100668.25;;;19.69;100.00
21640;BME280;10981;45.462;10.974;2023-09-18T05:00:46;100664.00;;;19.68;100.00
21640;BME280;10981;45.462;10.974;2023-09-18T05:03:18;100675.59;;;19.67;100.00
21640;BME280;10981;45.462;10.974;2023-09-18T05:05:46;100678.88;;;19.69;100.00
21640;BME280;10981;45.462;10.974;2023-09-18T05:08:15;100680.72;;;19.68;100.00
21640;BME280;10981;45.462;10.974;2023-09-18T05:10:44;100691.78;;;19.72;100.00
21640;BME280;10981;45.462;10.974;2023-09-18T05:13:12;100690.78;;;19.73;100.00
21640;BME280;10981;45.462;10.974;2023-09-18T05:15:41;100692.78;;;19.71;100.00
21640;BME280;10981;45.462;10.974;2023-09-18T05:18:09;100686.03;;;19.68;100.00
21640;BME280;10981;45.462;10.974;2023-09-18T05:20:37;100685.56;;;19.65;100.00
21640;BME280;10981;45.462;10.974;2023-09-18T05:23:06;100684.75;;;19.64;100.00
21640;BME280;10981;45.462;10.974;2023-09-18T05:25:35;100679.44;;;19.64;100.00
21640;BME280;10981;45.462;10.974;2023-09-18T05:28:06;100678.72;;;19.70;100.00
21640;BME280;10981;45.462;10.974;2023-09-18T05:30:36;100668.38;;;19.75;100.00
21640;BME280;10981;45.462;10.974;2023-09-18T05:33:07;100658.66;;;19.83;100.00
21640;BME280;10981;45.462;10.974;2023-09-18T05:35:42;100665.69;;;19.90;100.00
21640;BME280;10981;45.462;10.974;2023-09-18T05:38:12;100672.75;;;19.98;100.00
21640;BME280;10981;45.462;10.974;2023-09-18T05:40:46;100679.41;;;20.09;100.00
21640;BME280;10981;45.462;10.974;2023-09-18T05:43:15;100682.59;;;20.19;100.00
21640;BME280;10981;45.462;10.974;2023-09-18T05:45:43;100679.84;;;20.28;100.00
21640;BME280;10981;45.462;10.974;2023-09-18T05:48:13;100682.75;;;20.33;100.00
21640;BME280;10981;45.462;10.974;2023-09-18T05:50:41;100673.56;;;20.35;100.00
21640;BME280;10981;45.462;10.974;2023-09-18T05:53:10;100669.28;;;20.34;100.00
21640;BME280;10981;45.462;10.974;2023-09-18T05:55:39;100684.00;;;20.37;100.00
21640;BME280;10981;45.462;10.974;2023-09-18T05:58:07;100690.59;;;20.41;100.00
21640;BME280;10981;45.462;10.974;2023-09-18T06:00:36;100692.03;;;20.44;100.00
21640;BME280;10981;45.462;10.974;2023-09-18T06:03:07;100682.06;;;20.46;100.00
21640;BME280;10981;45.462;10.974;2023-09-18T06:05:39;100682.66;;;20.48;100.00
21640;BME280;10981;45.462;10.974;2023-09-18T06:08:08;100683.56;;;20.55;100.00
21640;BME280;10981;45.462;10.974;2023-09-18T06:10:39;100681.81;;;20.62;100.00
21640;BME280;10981;45.462;10.974;2023-09-18T06:13:07;100684.34;;;20.70;100.00
21640;BME280;10981;45.462;10.974;2023-09-18T06:15:36;100684.25;;;20.79;100.00
21640;BME280;10981;45.462;10.974;2023-09-18T06:18:04;100688.84;;;20.92;100.00
21640;BME280;10981;45.462;10.974;2023-09-18T06:20:34;100703.28;;;21.04;100.00
21640;BME280;10981;45.462;10.974;2023-09-18T06:23:03;100697.59;;;21.14;100.00
21640;BME280;10981;45.462;10.974;2023-09-18T06:25:32;100704.44;;;21.23;100.00
21640;BME280;10981;45.462;10.974;2023-09-18T06:28:00;100681.75;;;21.27;100.00
21640;BME280;10981;45.462;10.974;2023-09-18T06:30:31;100688.97;;;21.40;100.00
21640;BME280;10981;45.462;10.974;2023-09-18T06:33:02;100693.34;;;21.54;100.00
21640;BME280;10981;45.462;10.974;2023-09-18T06:35:32;100681.34;;;21.59;100.00
21640;BME280;10981;45.462;10.974;2023-09-18T06:38:01;100680.75;;;21.63;100.00
21640;BME280;10981;45.462;10.974;2023-09-18T06:40:29;100679.53;;;21.66;100.00
21640;BME280;10981;45.462;10.974;2023-09-18T06:43:01;100673.63;;;21.70;100.00
21640;BME280;10981;45.462;10.974;2023-09-18T06:45:29;100669.16;;;21.78;100.00
21640;BME280;10981;45.462;10.974;2023-09-18T06:47:57;100667.94;;;21.87;100.00
21640;BME280;10981;45.462;10.974;2023-09-18T06:50:26;100668.19;;;21.92;100.00
21640;BME280;10981;45.462;10.974;2023-09-18T06:52:55;100679.88;;;21.98;100.00
21640;BME280;10981;45.462;10.974;2023-09-18T06:55:23;100694.03;;;22.05;100.00
21640;BME280;10981;45.462;10.974;2023-09-18T06:57:51;100690.78;;;22.10;100.00
21640;BME280;10981;45.462;10.974;2023-09-18T07:00:20;100686.09;;;22.18;100.00
21640;BME280;10981;45.462;10.974;2023-09-18T07:02:49;100677.28;;;22.25;100.00
21640;BME280;10981;45.462;10.974;2023-09-18T07:05:18;100654.34;;;22.30;100.00
21640;BME280;10981;45.462;10.974;2023-09-18T07:07:46;100662.56;;;22.35;100.00
21640;BME280;10981;45.462;10.974;2023-09-18T07:10:15;100664.66;;;22.40;100.00
21640;BME280;10981;45.462;10.974;2023-09-18T07:12:43;100644.56;;;22.44;100.00
21640;BME280;10981;45.462;10.974;2023-09-18T07:15:11;100630.44;;;22.50;100.00
21640;BME280;10981;45.462;10.974;2023-09-18T07:17:40;100627.16;;;22.62;100.00
21640;BME280;10981;45.462;10.974;2023-09-18T07:20:09;100639.63;;;22.88;100.00
21640;BME280;10981;45.462;10.974;2023-09-18T07:25:14;100636.88;;;23.48;100.00
21640;BME280;10981;45.462;10.974;2023-09-18T07:27:42;100626.41;;;23.54;100.00
21640;BME280;10981;45.462;10.974;2023-09-18T07:30:15;100609.78;;;23.45;100.00
21640;BME280;10981;45.462;10.974;2023-09-18T07:32:48;100606.09;;;23.39;100.00
21640;BME280;10981;45.462;10.974;2023-09-18T07:35:17;100611.25;;;23.34;100.00
21640;BME280;10981;45.462;10.974;2023-09-18T07:37:45;100608.38;;;23.29;100.00
21640;BME280;10981;45.462;10.974;2023-09-18T07:40:15;100603.69;;;23.24;100.00
21640;BME280;10981;45.462;10.974;2023-09-18T07:42:46;100599.97;;;23.25;100.00
21640;BME280;10981;45.462;10.974;2023-09-18T07:45:15;100604.06;;;23.28;100.00
21640;BME280;10981;45.462;10.974;2023-09-18T07:47:43;100622.31;;;23.38;100.00
21640;BME280;10981;45.462;10.974;2023-09-18T07:50:15;100628.03;;;23.48;100.00
21640;BME280;10981;45.462;10.974;2023-09-18T07:52:46;100627.97;;;23.68;100.00
21640;BME280;10981;45.462;10.974;2023-09-18T07:55:15;100619.88;;;23.88;100.00
21640;BME280;10981;45.462;10.974;2023-09-18T07:57:44;100623.66;;;24.12;100.00
21640;BME280;10981;45.462;10.974;2023-09-18T08:00:13;100620.22;;;24.62;100.00
21640;BME280;10981;45.462;10.974;2023-09-18T08:02:44;100625.47;;;25.20;100.00
21640;BME280;10981;45.462;10.974;2023-09-18T08:05:14;100631.28;;;25.54;100.00
21640;BME280;10981;45.462;10.974;2023-09-18T08:07:44;100618.66;;;25.61;100.00
21640;BME280;10981;45.462;10.974;2023-09-18T08:10:12;100621.59;;;25.71;100.00
21640;BME280;10981;45.462;10.974;2023-09-18T08:12:40;100616.00;;;25.73;100.00
21640;BME280;10981;45.462;10.974;2023-09-18T08:15:09;100624.06;;;26.03;100.00
21640;BME280;10981;45.462;10.974;2023-09-18T08:17:38;100623.75;;;26.11;100.00
21640;BME280;10981;45.462;10.974;2023-09-18T08:20:09;100615.28;;;25.96;100.00
21640;BME280;10981;45.462;10.974;2023-09-18T08:22:42;100609.50;;;25.81;100.00
21640;BME280;10981;45.462;10.974;2023-09-18T08:25:11;100606.06;;;25.61;100.00
21640;BME280;10981;45.462;10.974;2023-09-18T08:27:41;100604.13;;;25.50;100.00
21640;BME280;10981;45.462;10.974;2023-09-18T08:30:15;100601.78;;;25.42;100.00
21640;BME280;10981;45.462;10.974;2023-09-18T08:32:45;100606.75;;;25.38;100.00
21640;BME280;10981;45.462;10.974;2023-09-18T08:35:14;100608.09;;;25.29;100.00
21640;BME280;10981;45.462;10.974;2023-09-18T08:37:43;100617.75;;;25.11;100.00
21640;BME280;10981;45.462;10.974;2023-09-18T08:40:13;100614.22;;;24.92;100.00
21640;BME280;10981;45.462;10.974;2023-09-18T08:42:47;100608.19;;;24.78;100.00
21640;BME280;10981;45.462;10.974;2023-09-18T08:47:54;100612.69;;;24.53;100.00
21640;BME280;10981;45.462;10.974;2023-09-18T08:50:24;100596.50;;;24.47;100.00
21640;BME280;10981;45.462;10.974;2023-09-18T08:52:54;100600.78;;;24.48;100.00
21640;BME280;10981;45.462;10.974;2023-09-18T08:55:24;100608.16;;;24.53;100.00
21640;BME280;10981;45.462;10.974;2023-09-18T08:57:53;100615.09;;;24.61;100.00
21640;BME280;10981;45.462;10.974;2023-09-18T09:00:23;100621.63;;;24.72;100.00
21640;BME280;10981;45.462;10.974;2023-09-18T09:02:51;100641.47;;;24.83;100.00
21640;BME280;10981;45.462;10.974;2023-09-18T09:05:22;100640.66;;;24.82;100.00
21640;BME280;10981;45.462;10.974;2023-09-18T09:07:54;100636.56;;;24.79;100.00
21640;BME280;10981;45.462;10.974;2023-09-18T09:10:22;100636.19;;;24.76;100.00
21640;BME280;10981;45.462;10.974;2023-09-18T09:12:56;100633.50;;;24.76;100.00
21640;BME280;10981;45.462;10.974;2023-09-18T09:15:34;100620.13;;;24.76;100.00
21640;BME280;10981;45.462;10.974;2023-09-18T09:18:16;100613.31;;;24.80;100.00
21640;BME280;10981;45.462;10.974;2023-09-18T09:20:55;100598.25;;;24.86;100.00
21640;BME280;10981;45.462;10.974;2023-09-18T09:23:45;100601.28;;;24.89;100.00
21640;BME280;10981;45.462;10.974;2023-09-18T09:26:15;100584.78;;;24.92;100.00
21640;BME280;10981;45.462;10.974;2023-09-18T09:28:45;100593.84;;;24.91;100.00
21640;BME280;10981;45.462;10.974;2023-09-18T09:31:28;100607.00;;;24.93;100.00
21640;BME280;10981;45.462;10.974;2023-09-18T09:33:57;100616.03;;;24.99;100.00
21640;BME280;10981;45.462;10.974;2023-09-18T09:36:27;100609.97;;;25.03;100.00
21640;BME280;10981;45.462;10.974;2023-09-18T09:38:58;100607.31;;;25.03;100.00
21640;BME280;10981;45.462;10.974;2023-09-18T09:41:27;100601.88;;;24.91;100.00
21640;BME280;10981;45.462;10.974;2023-09-18T09:43:58;100615.53;;;24.83;100.00
21640;BME280;10981;45.462;10.974;2023-09-18T09:46:26;100623.03;;;24.74;100.00
21640;BME280;10981;45.462;10.974;2023-09-18T09:49:03;100627.38;;;24.69;100.00
21640;BME280;10981;45.462;10.974;2023-09-18T09:51:34;100630.50;;;24.59;100.00
21640;BME280;10981;45.462;10.974;2023-09-18T09:54:03;100635.69;;;24.54;100.00
21640;BME280;10981;45.462;10.974;2023-09-18T09:56:46;100634.13;;;24.46;100.00
21640;BME280;10981;45.462;10.974;2023-09-18T09:59:16;100630.09;;;24.37;100.00
21640;BME280;10981;45.462;10.974;2023-09-18T10:01:48;100622.50;;;24.34;100.00
21640;BME280;10981;45.462;10.974;2023-09-18T10:04:20;100618.59;;;24.29;100.00
21640;BME280;10981;45.462;10.974;2023-09-18T10:07:14;100631.22;;;24.22;100.00
21640;BME280;10981;45.462;10.974;2023-09-18T10:09:42;100620.53;;;24.15;100.00
21640;BME280;10981;45.462;10.974;2023-09-18T10:12:17;100610.09;;;24.14;100.00
21640;BME280;10981;45.462;10.974;2023-09-18T10:14:50;100626.34;;;24.12;100.00
21640;BME280;10981;45.462;10.974;2023-09-18T10:17:30;100597.56;;;24.14;100.00
21640;BME280;10981;45.462;10.974;2023-09-18T10:20:08;100589.03;;;24.24;100.00
21640;BME280;10981;45.462;10.974;2023-09-18T10:22:43;100581.78;;;24.31;100.00
21640;BME280;10981;45.462;10.974;2023-09-18T10:25:26;100583.59;;;24.38;100.00
21640;BME280;10981;45.462;10.974;2023-09-18T10:27:57;100578.66;;;24.41;100.00
21640;BME280;10981;45.462;10.974;2023-09-18T10:30:30;100577.78;;;24.47;100.00
21640;BME280;10981;45.462;10.974;2023-09-18T10:33:02;100575.69;;;24.49;100.00
21640;BME280;10981;45.462;10.974;2023-09-18T10:35:31;100571.09;;;24.57;100.00
21640;BME280;10981;45.462;10.974;2023-09-18T10:38:00;100569.38;;;24.62;100.00
21640;BME280;10981;45.462;10.974;2023-09-18T10:40:36;100561.13;;;24.71;100.00
21640;BME280;10981;45.462;10.974;2023-09-18T10:43:08;100564.34;;;24.79;100.00
21640;BME280;10981;45.462;10.974;2023-09-18T10:45:38;100540.63;;;24.83;100.00
21640;BME280;10981;45.462;10.974;2023-09-18T10:48:12;100546.28;;;24.93;100.00
21640;BME280;10981;45.462;10.974;2023-09-18T10:50:43;100550.69;;;25.06;100.00
21640;BME280;10981;45.462;10.974;2023-09-18T10:53:12;100538.38;;;25.17;100.00
21640;BME280;10981;45.462;10.974;2023-09-18T10:55:45;100539.13;;;25.24;100.00
21640;BME280;10981;45.462;10.974;2023-09-18T10:58:23;100552.81;;;25.35;100.00
21640;BME280;10981;45.462;10.974;2023-09-18T11:00:56;100547.91;;;25.50;100.00
21640;BME280;10981;45.462;10.974;2023-09-18T11:03:27;100557.88;;;25.73;100.00
21640;BME280;10981;45.462;10.974;2023-09-18T11:06:10;100553.38;;;25.86;100.00
21640;BME280;10981;45.462;10.974;2023-09-18T11:08:49;100568.91;;;25.95;100.00
21640;BME280;10981;45.462;10.974;2023-09-18T11:11:19;100562.78;;;26.07;100.00
21640;BME280;10981;45.462;10.974;2023-09-18T11:13:53;100562.78;;;26.07;100.00
21640;BME280;10981;45.462;10.974;2023-09-18T11:21:32;100549.63;;;26.05;100.00
21640;BME280;10981;45.462;10.974;2023-09-18T11:24:14;100550.03;;;26.02;100.00
21640;BME280;10981;45.462;10.974;2023-09-18T11:26:47;100546.59;;;26.14;100.00
21640;BME280;10981;45.462;10.974;2023-09-18T11:29:21;100532.50;;;26.30;100.00
21640;BME280;10981;45.462;10.974;2023-09-18T11:34:24;100506.75;;;26.41;100.00
21640;BME280;10981;45.462;10.974;2023-09-18T11:36:55;100510.00;;;26.55;100.00
21640;BME280;10981;45.462;10.974;2023-09-18T11:39:37;100499.38;;;26.72;100.00
21640;BME280;10981;45.462;10.974;2023-09-18T11:42:12;100497.66;;;26.54;100.00
21640;BME280;10981;45.462;10.974;2023-09-18T11:44:41;100485.75;;;26.73;100.00
21640;BME280;10981;45.462;10.974;2023-09-18T11:47:16;100476.22;;;27.06;100.00
21640;BME280;10981;45.462;10.974;2023-09-18T11:50:00;100484.81;;;27.20;100.00
21640;BME280;10981;45.462;10.974;2023-09-18T11:52:32;100473.81;;;27.22;100.00
21640;BME280;10981;45.462;10.974;2023-09-18T11:55:02;100472.69;;;27.47;100.00
21640;BME280;10981;45.462;10.974;2023-09-18T11:57:35;100483.97;;;27.78;100.00
21640;BME280;10981;45.462;10.974;2023-09-18T12:00:04;100483.41;;;27.93;100.00
21640;BME280;10981;45.462;10.974;2023-09-18T12:02:40;100488.63;;;28.16;100.00
21640;BME280;10981;45.462;10.974;2023-09-18T12:05:16;100481.53;;;28.10;100.00
21640;BME280;10981;45.462;10.974;2023-09-18T12:07:47;100479.63;;;28.28;100.00
21640;BME280;10981;45.462;10.974;2023-09-18T12:10:16;100486.00;;;28.38;100.00
21640;BME280;10981;45.462;10.974;2023-09-18T12:12:47;100489.09;;;28.30;100.00
21640;BME280;10981;45.462;10.974;2023-09-18T12:15:35;100501.16;;;28.28;100.00
21640;BME280;10981;45.462;10.974;2023-09-18T12:18:10;100507.03;;;28.08;100.00
21640;BME280;10981;45.462;10.974;2023-09-18T12:20:47;100501.31;;;27.87;100.00
21640;BME280;10981;45.462;10.974;2023-09-18T12:23:17;100501.22;;;27.65;100.00
21640;BME280;10981;45.462;10.974;2023-09-18T12:25:50;100513.53;;;27.49;100.00
21640;BME280;10981;45.462;10.974;2023-09-18T12:28:25;100511.59;;;27.32;100.00
21640;BME280;10981;45.462;10.974;2023-09-18T12:30:59;100512.44;;;27.33;100.00
21640;BME280;10981;45.462;10.974;2023-09-18T12:33:38;100504.09;;;27.46;100.00
21640;BME280;10981;45.462;10.974;2023-09-18T12:36:08;100493.69;;;27.50;100.00
21640;BME280;10981;45.462;10.974;2023-09-18T12:38:37;100509.63;;;27.39;100.00
21640;BME280;10981;45.462;10.974;2023-09-18T12:41:06;100497.28;;;27.27;100.00
21640;BME280;10981;45.462;10.974;2023-09-18T12:43:36;100493.75;;;27.26;100.00
21640;BME280;10981;45.462;10.974;2023-09-18T12:46:05;100483.00;;;27.26;100.00
21640;BME280;10981;45.462;10.974;2023-09-18T12:48:39;100476.81;;;27.08;100.00
21640;BME280;10981;45.462;10.974;2023-09-18T12:51:14;100469.97;;;26.89;100.00
21640;BME280;10981;45.462;10.974;2023-09-18T12:53:45;100463.47;;;26.73;100.00
21640;BME280;10981;45.462;10.974;2023-09-18T12:56:16;100460.56;;;26.63;100.00
21640;BME280;10981;45.462;10.974;2023-09-18T12:58:45;100465.91;;;26.51;100.00
21640;BME280;10981;45.462;10.974;2023-09-18T13:01:34;100459.63;;;26.33;100.00
21640;BME280;10981;45.462;10.974;2023-09-18T13:04:05;100473.28;;;26.20;100.00